sensor_id;sensor_type;location;lat;lon;timestamp;temperature;humidity
41928;DHT22;27616;51.420;6.788;2023-04-29T00:01:05;11.40;99.90
41928;DHT22;27616;51.420;6.788;2023-04-29T00:03:31;11.30;99.90
41928;DHT22;27616;51.420;6.788;2023-04-29T00:05:59;11.20;99.90
41928;DHT22;27616;51.420;6.788;2023-04-29T00:08:27;11.20;99.90
41928;DHT22;27616;51.420;6.788;2023-04-29T00:10:53;11.10;99.90
41928;DHT22;27616;51.420;6.788;2023-04-29T00:13:18;11.10;99.90
41928;DHT22;27616;51.420;6.788;2023-04-29T00:15:44;11.10;99.90
41928;DHT22;27616;51.420;6.788;2023-04-29T00:18:10;11.00;99.90
41928;DHT22;27616;51.420;6.788;2023-04-29T00:20:36;11.00;99.90
41928;DHT22;27616;51.420;6.788;2023-04-29T00:23:03;10.90;99.90
41928;DHT22;27616;51.420;6.788;2023-04-29T00:25:29;10.90;99.90
41928;DHT22;27616;51.420;6.788;2023-04-29T00:27:55;10.80;99.90
41928;DHT22;27616;51.420;6.788;2023-04-29T00:30:21;10.80;99.90
41928;DHT22;27616;51.420;6.788;2023-04-29T00:32:46;10.80;99.90
41928;DHT22;27616;51.420;6.788;2023-04-29T00:35:12;10.70;99.90
41928;DHT22;27616;51.420;6.788;2023-04-29T00:37:38;10.70;99.90
41928;DHT22;27616;51.420;6.788;2023-04-29T00:40:05;10.70;99.90
41928;DHT22;27616;51.420;6.788;2023-04-29T00:42:31;10.70;99.90
41928;DHT22;27616;51.420;6.788;2023-04-29T00:44:59;10.70;99.90
41928;DHT22;27616;51.420;6.788;2023-04-29T00:47:25;10.80;99.90
41928;DHT22;27616;51.420;6.788;2023-04-29T00:49:51;10.70;99.90
41928;DHT22;27616;51.420;6.788;2023-04-29T00:52:16;10.70;99.90
41928;DHT22;27616;51.420;6.788;2023-04-29T00:54:43;10.60;99.90
41928;DHT22;27616;51.420;6.788;2023-04-29T00:57:09;10.60;99.90
41928;DHT22;27616;51.420;6.788;2023-04-29T00:59:35;10.60;99.90
41928;DHT22;27616;51.420;6.788;2023-04-29T01:02:02;10.50;99.90
41928;DHT22;27616;51.420;6.788;2023-04-29T01:04:31;10.50;99.90
41928;DHT22;27616;51.420;6.788;2023-04-29T01:07:08;10.50;99.90
41928;DHT22;27616;51.420;6.788;2023-04-29T01:12:49;10.40;99.90
41928;DHT22;27616;51.420;6.788;2023-04-29T01:15:33;10.40;99.90
41928;DHT22;27616;51.420;6.788;2023-04-29T01:18:13;10.40;99.90
41928;DHT22;27616;51.420;6.788;2023-04-29T01:20:41;10.30;99.90
41928;DHT22;27616;51.420;6.788;2023-04-29T01:23:09;10.30;99.90
41928;DHT22;27616;51.420;6.788;2023-04-29T01:25:36;10.30;99.90
41928;DHT22;27616;51.420;6.788;2023-04-29T01:28:48;10.20;99.90
41928;DHT22;27616;51.420;6.788;2023-04-29T01:31:30;10.20;99.90
41928;DHT22;27616;51.420;6.788;2023-04-29T01:39:45;10.20;99.90
41928;DHT22;27616;51.420;6.788;2023-04-29T01:42:17;10.20;99.90
41928;DHT22;27616;51.420;6.788;2023-04-29T01:44:46;10.20;99.90
41928;DHT22;27616;51.420;6.788;2023-04-29T01:47:14;10.20;99.90
41928;DHT22;27616;51.420;6.788;2023-04-29T01:49:45;10.20;99.90
41928;DHT22;27616;51.420;6.788;2023-04-29T01:52:11;10.10;99.90
41928;DHT22;27616;51.420;6.788;2023-04-29T01:54:39;10.10;99.90
41928;DHT22;27616;51.420;6.788;2023-04-29T01:57:05;10.00;99.90
41928;DHT22;27616;51.420;6.788;2023-04-29T01:59:48;10.00;99.90
41928;DHT22;27616;51.420;6.788;2023-04-29T02:02:37;10.00;99.90
41928;DHT22;27616;51.420;6.788;2023-04-29T02:05:23;9.90;99.90
41928;DHT22;27616;51.420;6.788;2023-04-29T02:07:54;9.80;99.90
41928;DHT22;27616;51.420;6.788;2023-04-29T02:10:20;9.90;99.90
41928;DHT22;27616;51.420;6.788;2023-04-29T02:12:48;9.90;99.90
41928;DHT22;27616;51.420;6.788;2023-04-29T02:15:15;9.80;99.90
41928;DHT22;27616;51.420;6.788;2023-04-29T02:17:40;9.90;99.90
41928;DHT22;27616;51.420;6.788;2023-04-29T02:20:07;9.80;99.90
41928;DHT22;27616;51.420;6.788;2023-04-29T02:22:33;9.90;99.90
41928;DHT22;27616;51.420;6.788;2023-04-29T02:24:58;9.90;99.90
41928;DHT22;27616;51.420;6.788;2023-04-29T02:27:24;9.90;99.90
41928;DHT22;27616;51.420;6.788;2023-04-29T02:29:51;9.80;99.90
41928;DHT22;27616;51.420;6.788;2023-04-29T02:32:16;9.80;99.90
41928;DHT22;27616;51.420;6.788;2023-04-29T02:34:44;9.80;99.90
41928;DHT22;27616;51.420;6.788;2023-04-29T02:37:10;9.80;99.90
41928;DHT22;27616;51.420;6.788;2023-04-29T02:39:36;9.70;99.90
41928;DHT22;27616;51.420;6.788;2023-04-29T02:42:02;9.70;99.90
41928;DHT22;27616;51.420;6.788;2023-04-29T02:44:28;9.80;99.90
41928;DHT22;27616;51.420;6.788;2023-04-29T02:46:55;9.80;99.90
41928;DHT22;27616;51.420;6.788;2023-04-29T02:49:22;9.80;99.90
41928;DHT22;27616;51.420;6.788;2023-04-29T02:51:48;9.90;99.90
41928;DHT22;27616;51.420;6.788;2023-04-29T02:54:15;9.80;99.90
41928;DHT22;27616;51.420;6.788;2023-04-29T02:56:42;9.70;99.90
41928;DHT22;27616;51.420;6.788;2023-04-29T02:59:08;9.80;99.90
41928;DHT22;27616;51.420;6.788;2023-04-29T03:01:34;9.70;99.90
41928;DHT22;27616;51.420;6.788;2023-04-29T03:04:00;9.70;99.90
41928;DHT22;27616;51.420;6.788;2023-04-29T03:06:26;9.70;99.90
41928;DHT22;27616;51.420;6.788;2023-04-29T03:08:52;9.70;99.90
41928;DHT22;27616;51.420;6.788;2023-04-29T03:11:19;9.70;99.90
41928;DHT22;27616;51.420;6.788;2023-04-29T03:13:44;9.70;99.90
41928;DHT22;27616;51.420;6.788;2023-04-29T03:16:11;9.60;99.90
41928;DHT22;27616;51.420;6.788;2023-04-29T03:18:42;9.50;99.90
41928;DHT22;27616;51.420;6.788;2023-04-29T03:21:08;9.60;99.90
41928;DHT22;27616;51.420;6.788;2023-04-29T03:23:34;9.60;99.90
41928;DHT22;27616;51.420;6.788;2023-04-29T03:26:01;9.60;99.90
41928;DHT22;27616;51.420;6.788;2023-04-29T03:28:27;9.60;99.90
41928;DHT22;27616;51.420;6.788;2023-04-29T03:30:53;9.60;99.90
41928;DHT22;27616;51.420;6.788;2023-04-29T03:33:19;9.60;99.90
41928;DHT22;27616;51.420;6.788;2023-04-29T03:35:44;9.60;99.90
41928;DHT22;27616;51.420;6.788;2023-04-29T03:38:19;9.60;99.90
41928;DHT22;27616;51.420;6.788;2023-04-29T03:40:47;9.60;99.90
41928;DHT22;27616;51.420;6.788;2023-04-29T03:43:15;9.50;99.90
41928;DHT22;27616;51.420;6.788;2023-04-29T03:45:40;9.40;99.90
41928;DHT22;27616;51.420;6.788;2023-04-29T03:48:06;9.50;99.90
41928;DHT22;27616;51.420;6.788;2023-04-29T03:50:34;9.40;99.90
41928;DHT22;27616;51.420;6.788;2023-04-29T03:52:59;9.50;99.90
41928;DHT22;27616;51.420;6.788;2023-04-29T03:55:25;9.50;99.90
41928;DHT22;27616;51.420;6.788;2023-04-29T03:57:51;9.40;99.90
41928;DHT22;27616;51.420;6.788;2023-04-29T04:00:18;9.40;99.90
41928;DHT22;27616;51.420;6.788;2023-04-29T04:02:47;9.40;99.90
41928;DHT22;27616;51.420;6.788;2023-04-29T04:05:14;9.40;99.90
41928;DHT22;27616;51.420;6.788;2023-04-29T04:07:45;9.40;99.90
41928;DHT22;27616;51.420;6.788;2023-04-29T04:10:29;9.40;99.90
41928;DHT22;27616;51.420;6.788;2023-04-29T04:12:56;9.40;99.90
41928;DHT22;27616;51.420;6.788;2023-04-29T04:15:22;9.30;99.90
41928;DHT22;27616;51.420;6.788;2023-04-29T04:17:48;9.40;99.90
41928;DHT22;27616;51.420;6.788;2023-04-29T04:20:14;9.40;99.90
41928;DHT22;27616;51.420;6.788;2023-04-29T04:22:40;9.40;99.90
41928;DHT22;27616;51.420;6.788;2023-04-29T04:25:15;9.40;99.90
41928;DHT22;27616;51.420;6.788;2023-04-29T04:27:41;9.30;99.90
41928;DHT22;27616;51.420;6.788;2023-04-29T04:30:11;9.30;99.90
41928;DHT22;27616;51.420;6.788;2023-04-29T04:32:37;9.30;99.90
41928;DHT22;27616;51.420;6.788;2023-04-29T04:35:04;9.30;99.90
41928;DHT22;27616;51.420;6.788;2023-04-29T04:37:31;9.30;99.90
41928;DHT22;27616;51.420;6.788;2023-04-29T04:39:59;9.30;99.90
41928;DHT22;27616;51.420;6.788;2023-04-29T04:42:25;9.20;99.90
41928;DHT22;27616;51.420;6.788;2023-04-29T04:44:55;9.30;99.90
41928;DHT22;27616;51.420;6.788;2023-04-29T04:47:44;9.30;99.90
41928;DHT22;27616;51.420;6.788;2023-04-29T04:50:20;9.30;99.90
41928;DHT22;27616;51.420;6.788;2023-04-29T04:52:48;9.40;99.90
41928;DHT22;27616;51.420;6.788;2023-04-29T04:55:31;9.40;99.90
41928;DHT22;27616;51.420;6.788;2023-04-29T04:57:58;9.40;99.90
41928;DHT22;27616;51.420;6.788;2023-04-29T05:00:24;9.40;99.90
41928;DHT22;27616;51.420;6.788;2023-04-29T05:02:50;9.40;99.90
41928;DHT22;27616;51.420;6.788;2023-04-29T05:05:16;9.40;99.90
41928;DHT22;27616;51.420;6.788;2023-04-29T05:07:42;9.40;99.90
41928;DHT22;27616;51.420;6.788;2023-04-29T05:10:08;9.40;99.90
41928;DHT22;27616;51.420;6.788;2023-04-29T05:12:42;9.40;99.90
41928;DHT22;27616;51.420;6.788;2023-04-29T05:15:08;9.40;99.90
41928;DHT22;27616;51.420;6.788;2023-04-29T05:17:35;9.40;99.90
41928;DHT22;27616;51.420;6.788;2023-04-29T05:20:01;9.40;99.90
41928;DHT22;27616;51.420;6.788;2023-04-29T05:22:28;9.50;99.90
41928;DHT22;27616;51.420;6.788;2023-04-29T05:24:55;9.50;99.90
41928;DHT22;27616;51.420;6.788;2023-04-29T05:27:27;9.50;99.90
41928;DHT22;27616;51.420;6.788;2023-04-29T05:29:53;9.60;99.90
41928;DHT22;27616;51.420;6.788;2023-04-29T05:32:19;9.60;99.90
41928;DHT22;27616;51.420;6.788;2023-04-29T05:34:45;9.60;99.90
41928;DHT22;27616;51.420;6.788;2023-04-29T05:37:11;9.60;99.90
41928;DHT22;27616;51.420;6.788;2023-04-29T05:39:51;9.60;99.90
41928;DHT22;27616;51.420;6.788;2023-04-29T05:42:17;9.60;99.90
41928;DHT22;27616;51.420;6.788;2023-04-29T05:44:47;9.50;99.90
41928;DHT22;27616;51.420;6.788;2023-04-29T05:47:13;9.50;99.90
41928;DHT22;27616;51.420;6.788;2023-04-29T05:49:40;9.50;99.90
41928;DHT22;27616;51.420;6.788;2023-04-29T05:52:06;9.60;99.90
41928;DHT22;27616;51.420;6.788;2023-04-29T05:54:36;9.60;99.90
41928;DHT22;27616;51.420;6.788;2023-04-29T05:57:02;9.60;99.90
41928;DHT22;27616;51.420;6.788;2023-04-29T05:59:29;9.60;99.90
41928;DHT22;27616;51.420;6.788;2023-04-29T06:01:56;9.60;99.90
41928;DHT22;27616;51.420;6.788;2023-04-29T06:04:22;9.60;99.90
41928;DHT22;27616;51.420;6.788;2023-04-29T06:07:08;9.60;99.90
41928;DHT22;27616;51.420;6.788;2023-04-29T06:10:00;9.60;99.90
41928;DHT22;27616;51.420;6.788;2023-04-29T06:12:27;9.60;99.90
41928;DHT22;27616;51.420;6.788;2023-04-29T06:14:53;9.60;99.90
41928;DHT22;27616;51.420;6.788;2023-04-29T06:17:19;9.60;99.90
41928;DHT22;27616;51.420;6.788;2023-04-29T06:19:45;9.60;99.90
41928;DHT22;27616;51.420;6.788;2023-04-29T06:22:10;9.60;99.90
41928;DHT22;27616;51.420;6.788;2023-04-29T06:24:41;9.60;99.90
41928;DHT22;27616;51.420;6.788;2023-04-29T06:27:07;9.60;99.90
41928;DHT22;27616;51.420;6.788;2023-04-29T06:29:33;9.70;99.90
41928;DHT22;27616;51.420;6.788;2023-04-29T06:31:59;9.70;99.90
41928;DHT22;27616;51.420;6.788;2023-04-29T06:34:24;9.70;99.90
41928;DHT22;27616;51.420;6.788;2023-04-29T06:37:09;9.70;99.90
41928;DHT22;27616;51.420;6.788;2023-04-29T06:40:05;9.80;99.90
41928;DHT22;27616;51.420;6.788;2023-04-29T06:42:41;9.80;99.90
41928;DHT22;27616;51.420;6.788;2023-04-29T06:45:46;9.80;99.90
41928;DHT22;27616;51.420;6.788;2023-04-29T06:48:30;9.80;99.90
41928;DHT22;27616;51.420;6.788;2023-04-29T06:50:57;9.80;99.90
41928;DHT22;27616;51.420;6.788;2023-04-29T06:53:23;9.70;99.90
41928;DHT22;27616;51.420;6.788;2023-04-29T06:55:49;9.80;99.90
41928;DHT22;27616;51.420;6.788;2023-04-29T06:58:16;9.80;99.90
41928;DHT22;27616;51.420;6.788;2023-04-29T07:00:46;9.70;99.90
41928;DHT22;27616;51.420;6.788;2023-04-29T07:03:13;9.70;99.90
41928;DHT22;27616;51.420;6.788;2023-04-29T07:05:39;9.70;99.90
41928;DHT22;27616;51.420;6.788;2023-04-29T07:08:08;9.70;99.90
41928;DHT22;27616;51.420;6.788;2023-04-29T07:10:34;9.70;99.90
41928;DHT22;27616;51.420;6.788;2023-04-29T07:13:00;9.70;99.90
41928;DHT22;27616;51.420;6.788;2023-04-29T07:15:27;9.80;99.90
41928;DHT22;27616;51.420;6.788;2023-04-29T07:17:54;9.80;99.90
41928;DHT22;27616;51.420;6.788;2023-04-29T07:20:21;9.90;99.90
41928;DHT22;27616;51.420;6.788;2023-04-29T07:22:47;10.00;99.90
41928;DHT22;27616;51.420;6.788;2023-04-29T07:25:12;9.90;99.90
41928;DHT22;27616;51.420;6.788;2023-04-29T07:27:39;10.00;99.90
41928;DHT22;27616;51.420;6.788;2023-04-29T07:30:05;10.00;99.90
41928;DHT22;27616;51.420;6.788;2023-04-29T07:32:31;10.00;99.90
41928;DHT22;27616;51.420;6.788;2023-04-29T07:35:00;10.00;99.90
41928;DHT22;27616;51.420;6.788;2023-04-29T07:37:26;10.00;99.90
41928;DHT22;27616;51.420;6.788;2023-04-29T07:39:52;10.00;99.90
41928;DHT22;27616;51.420;6.788;2023-04-29T07:42:18;10.00;99.90
41928;DHT22;27616;51.420;6.788;2023-04-29T07:44:44;10.00;99.90
41928;DHT22;27616;51.420;6.788;2023-04-29T07:47:11;10.00;99.90
41928;DHT22;27616;51.420;6.788;2023-04-29T07:49:37;10.00;99.90
41928;DHT22;27616;51.420;6.788;2023-04-29T07:52:06;9.90;99.90
41928;DHT22;27616;51.420;6.788;2023-04-29T07:54:35;9.90;99.90
41928;DHT22;27616;51.420;6.788;2023-04-29T07:57:01;9.90;99.90
41928;DHT22;27616;51.420;6.788;2023-04-29T07:59:30;9.90;99.90
41928;DHT22;27616;51.420;6.788;2023-04-29T08:01:56;9.90;99.90
41928;DHT22;27616;51.420;6.788;2023-04-29T08:04:22;9.90;99.90
41928;DHT22;27616;51.420;6.788;2023-04-29T08:06:55;9.90;99.90
41928;DHT22;27616;51.420;6.788;2023-04-29T08:09:20;10.00;99.90
41928;DHT22;27616;51.420;6.788;2023-04-29T08:11:46;10.00;99.90
41928;DHT22;27616;51.420;6.788;2023-04-29T08:14:12;10.00;99.90
41928;DHT22;27616;51.420;6.788;2023-04-29T08:16:38;10.00;99.90
41928;DHT22;27616;51.420;6.788;2023-04-29T08:19:03;10.00;99.90
41928;DHT22;27616;51.420;6.788;2023-04-29T08:21:29;10.10;99.90
41928;DHT22;27616;51.420;6.788;2023-04-29T08:23:56;10.10;99.90
41928;DHT22;27616;51.420;6.788;2023-04-29T08:26:22;10.10;99.90
41928;DHT22;27616;51.420;6.788;2023-04-29T08:28:48;10.10;99.90
41928;DHT22;27616;51.420;6.788;2023-04-29T08:31:20;10.20;99.90
41928;DHT22;27616;51.420;6.788;2023-04-29T08:33:46;10.10;99.90
41928;DHT22;27616;51.420;6.788;2023-04-29T08:36:12;10.20;99.90
41928;DHT22;27616;51.420;6.788;2023-04-29T08:38:38;10.20;99.90
41928;DHT22;27616;51.420;6.788;2023-04-29T08:41:07;10.20;99.90
41928;DHT22;27616;51.420;6.788;2023-04-29T08:43:34;10.20;99.90
41928;DHT22;27616;51.420;6.788;2023-04-29T08:46:02;10.20;99.90
41928;DHT22;27616;51.420;6.788;2023-04-29T08:48:29;10.30;99.90
41928;DHT22;27616;51.420;6.788;2023-04-29T08:50:55;10.30;99.90
41928;DHT22;27616;51.420;6.788;2023-04-29T08:53:23;10.30;99.90
41928;DHT22;27616;51.420;6.788;2023-04-29T08:55:49;10.30;99.90
41928;DHT22;27616;51.420;6.788;2023-04-29T08:58:15;10.40;99.90
41928;DHT22;27616;51.420;6.788;2023-04-29T09:00:42;10.40;99.90
41928;DHT22;27616;51.420;6.788;2023-04-29T09:05:42;10.50;99.90
41928;DHT22;27616;51.420;6.788;2023-04-29T09:08:11;10.50;99.90
41928;DHT22;27616;51.420;6.788;2023-04-29T09:10:40;10.50;99.90
41928;DHT22;27616;51.420;6.788;2023-04-29T09:13:06;10.40;99.90
41928;DHT22;27616;51.420;6.788;2023-04-29T09:15:36;10.50;99.90
41928;DHT22;27616;51.420;6.788;2023-04-29T09:18:02;10.50;99.90
41928;DHT22;27616;51.420;6.788;2023-04-29T09:20:29;10.50;99.90
41928;DHT22;27616;51.420;6.788;2023-04-29T09:25:22;10.60;99.90
41928;DHT22;27616;51.420;6.788;2023-04-29T09:27:47;10.70;99.90
41928;DHT22;27616;51.420;6.788;2023-04-29T09:30:13;10.60;99.90
41928;DHT22;27616;51.420;6.788;2023-04-29T09:32:41;10.70;99.90
41928;DHT22;27616;51.420;6.788;2023-04-29T09:35:23;10.70;99.90
41928;DHT22;27616;51.420;6.788;2023-04-29T09:37:50;10.70;99.90
41928;DHT22;27616;51.420;6.788;2023-04-29T09:40:44;10.70;99.90
41928;DHT22;27616;51.420;6.788;2023-04-29T09:43:15;10.70;99.90
41928;DHT22;27616;51.420;6.788;2023-04-29T09:45:46;10.70;99.90
41928;DHT22;27616;51.420;6.788;2023-04-29T09:48:12;10.80;99.90
41928;DHT22;27616;51.420;6.788;2023-04-29T09:50:39;10.80;99.90
41928;DHT22;27616;51.420;6.788;2023-04-29T09:53:07;10.80;99.90
41928;DHT22;27616;51.420;6.788;2023-04-29T09:55:57;10.80;99.90
41928;DHT22;27616;51.420;6.788;2023-04-29T09:58:28;10.90;99.90
41928;DHT22;27616;51.420;6.788;2023-04-29T10:00:58;11.00;99.90
41928;DHT22;27616;51.420;6.788;2023-04-29T10:03:30;11.10;99.90
41928;DHT22;27616;51.420;6.788;2023-04-29T10:05:57;11.20;99.90
41928;DHT22;27616;51.420;6.788;2023-04-29T10:08:25;11.30;99.90
41928;DHT22;27616;51.420;6.788;2023-04-29T10:10:52;11.40;99.90
41928;DHT22;27616;51.420;6.788;2023-04-29T10:13:25;11.50;99.90
41928;DHT22;27616;51.420;6.788;2023-04-29T10:15:59;11.50;99.90
41928;DHT22;27616;51.420;6.788;2023-04-29T10:18:33;11.60;99.90
41928;DHT22;27616;51.420;6.788;2023-04-29T10:21:02;11.70;99.90
41928;DHT22;27616;51.420;6.788;2023-04-29T10:23:29;11.80;99.90
41928;DHT22;27616;51.420;6.788;2023-04-29T10:25:56;11.90;99.90
41928;DHT22;27616;51.420;6.788;2023-04-29T10:28:24;12.00;99.90
41928;DHT22;27616;51.420;6.788;2023-04-29T10:30:50;11.90;99.90
41928;DHT22;27616;51.420;6.788;2023-04-29T10:33:17;11.90;99.90
41928;DHT22;27616;51.420;6.788;2023-04-29T10:35:43;11.90;99.90
41928;DHT22;27616;51.420;6.788;2023-04-29T10:38:24;11.90;99.90
41928;DHT22;27616;51.420;6.788;2023-04-29T10:40:53;12.00;99.90
41928;DHT22;27616;51.420;6.788;2023-04-29T10:43:24;12.10;99.90
41928;DHT22;27616;51.420;6.788;2023-04-29T10:48:42;12.50;99.90
41928;DHT22;27616;51.420;6.788;2023-04-29T10:51:08;12.40;99.90
41928;DHT22;27616;51.420;6.788;2023-04-29T10:53:34;12.60;99.90
41928;DHT22;27616;51.420;6.788;2023-04-29T10:56:07;12.60;99.90
41928;DHT22;27616;51.420;6.788;2023-04-29T10:58:38;12.70;99.90
41928;DHT22;27616;51.420;6.788;2023-04-29T11:01:05;12.80;99.90
41928;DHT22;27616;51.420;6.788;2023-04-29T11:03:55;13.00;99.90
41928;DHT22;27616;51.420;6.788;2023-04-29T11:06:39;13.10;99.90
41928;DHT22;27616;51.420;6.788;2023-04-29T11:09:14;13.10;99.90
41928;DHT22;27616;51.420;6.788;2023-04-29T11:14:23;13.00;99.90
41928;DHT22;27616;51.420;6.788;2023-04-29T11:16:55;13.20;99.90
41928;DHT22;27616;51.420;6.788;2023-04-29T11:19:23;13.40;99.90
41928;DHT22;27616;51.420;6.788;2023-04-29T11:22:10;13.40;99.90
41928;DHT22;27616;51.420;6.788;2023-04-29T11:24:46;13.70;99.90
41928;DHT22;27616;51.420;6.788;2023-04-29T11:27:14;13.80;99.90
41928;DHT22;27616;51.420;6.788;2023-04-29T11:29:40;13.80;99.90
41928;DHT22;27616;51.420;6.788;2023-04-29T11:32:06;13.70;99.90
41928;DHT22;27616;51.420;6.788;2023-04-29T11:34:32;13.70;99.90
41928;DHT22;27616;51.420;6.788;2023-04-29T11:36:58;13.90;99.90
41928;DHT22;27616;51.420;6.788;2023-04-29T11:39:26;13.90;99.90
41928;DHT22;27616;51.420;6.788;2023-04-29T11:42:01;13.90;99.90
41928;DHT22;27616;51.420;6.788;2023-04-29T11:44:27;13.90;99.90
41928;DHT22;27616;51.420;6.788;2023-04-29T11:46:59;14.10;99.90
41928;DHT22;27616;51.420;6.788;2023-04-29T11:49:34;14.20;99.90
41928;DHT22;27616;51.420;6.788;2023-04-29T11:52:02;14.30;99.90
41928;DHT22;27616;51.420;6.788;2023-04-29T11:54:29;14.50;99.90
41928;DHT22;27616;51.420;6.788;2023-04-29T11:56:57;14.80;99.90
41928;DHT22;27616;51.420;6.788;2023-04-29T11:59:23;15.00;99.90
41928;DHT22;27616;51.420;6.788;2023-04-29T12:01:51;15.40;99.90
41928;DHT22;27616;51.420;6.788;2023-04-29T12:04:17;15.70;99.90
41928;DHT22;27616;51.420;6.788;2023-04-29T12:06:50;15.70;99.90
41928;DHT22;27616;51.420;6.788;2023-04-29T12:09:16;15.50;99.90
41928;DHT22;27616;51.420;6.788;2023-04-29T12:11:43;15.10;99.90
41928;DHT22;27616;51.420;6.788;2023-04-29T12:14:09;15.10;99.90
41928;DHT22;27616;51.420;6.788;2023-04-29T12:16:35;15.30;99.90
41928;DHT22;27616;51.420;6.788;2023-04-29T12:19:01;15.50;99.90
41928;DHT22;27616;51.420;6.788;2023-04-29T12:21:27;15.40;99.90
41928;DHT22;27616;51.420;6.788;2023-04-29T12:23:53;15.40;99.90
41928;DHT22;27616;51.420;6.788;2023-04-29T12:26:19;15.30;99.90
41928;DHT22;27616;51.420;6.788;2023-04-29T12:28:52;15.00;99.90
41928;DHT22;27616;51.420;6.788;2023-04-29T12:31:18;14.80;99.90
41928;DHT22;27616;51.420;6.788;2023-04-29T12:33:43;14.80;99.90
41928;DHT22;27616;51.420;6.788;2023-04-29T12:36:17;14.70;99.90
41928;DHT22;27616;51.420;6.788;2023-04-29T12:38:44;14.80;99.90
41928;DHT22;27616;51.420;6.788;2023-04-29T12:41:10;14.70;99.90
41928;DHT22;27616;51.420;6.788;2023-04-29T12:43:38;14.60;99.90
41928;DHT22;27616;51.420;6.788;2023-04-29T12:46:05;14.40;99.90
41928;DHT22;27616;51.420;6.788;2023-04-29T12:48:32;14.30;99.90
41928;DHT22;27616;51.420;6.788;2023-04-29T12:50:59;14.30;99.90
41928;DHT22;27616;51.420;6.788;2023-04-29T12:53:27;14.20;99.90
41928;DHT22;27616;51.420;6.788;2023-04-29T12:55:53;14.30;99.90
41928;DHT22;27616;51.420;6.788;2023-04-29T12:58:19;14.30;99.90
41928;DHT22;27616;51.420;6.788;2023-04-29T13:00:45;14.30;99.90
41928;DHT22;27616;51.420;6.788;2023-04-29T13:03:10;14.40;99.90
41928;DHT22;27616;51.420;6.788;2023-04-29T13:05:36;14.60;99.90
41928;DHT22;27616;51.420;6.788;2023-04-29T13:08:02;14.70;99.90
41928;DHT22;27616;51.420;6.788;2023-04-29T13:10:30;14.70;99.90
41928;DHT22;27616;51.420;6.788;2023-04-29T13:12:56;14.70;99.90
41928;DHT22;27616;51.420;6.788;2023-04-29T13:15:22;14.70;99.90
41928;DHT22;27616;51.420;6.788;2023-04-29T13:17:47;14.70;99.90
41928;DHT22;27616;51.420;6.788;2023-04-29T13:20:13;14.70;99.90
41928;DHT22;27616;51.420;6.788;2023-04-29T13:22:40;14.70;99.90
41928;DHT22;27616;51.420;6.788;2023-04-29T13:25:08;14.80;99.90
41928;DHT22;27616;51.420;6.788;2023-04-29T13:27:34;14.70;99.90
41928;DHT22;27616;51.420;6.788;2023-04-29T13:30:00;14.90;99.90
41928;DHT22;27616;51.420;6.788;2023-04-29T13:32:26;15.00;99.90
41928;DHT22;27616;51.420;6.788;2023-04-29T13:34:52;14.90;99.90
41928;DHT22;27616;51.420;6.788;2023-04-29T13:37:18;14.90;99.90
41928;DHT22;27616;51.420;6.788;2023-04-29T13:39:46;14.80;99.90
41928;DHT22;27616;51.420;6.788;2023-04-29T13:42:12;14.90;99.90
41928;DHT22;27616;51.420;6.788;2023-04-29T13:44:38;15.00;99.90
41928;DHT22;27616;51.420;6.788;2023-04-29T13:47:17;15.10;99.90
41928;DHT22;27616;51.420;6.788;2023-04-29T13:49:43;15.10;99.90
41928;DHT22;27616;51.420;6.788;2023-04-29T13:52:11;15.00;99.90
41928;DHT22;27616;51.420;6.788;2023-04-29T13:54:37;15.20;99.90
41928;DHT22;27616;51.420;6.788;2023-04-29T13:57:04;15.20;99.90
41928;DHT22;27616;51.420;6.788;2023-04-29T13:59:33;15.20;99.90
41928;DHT22;27616;51.420;6.788;2023-04-29T14:02:00;15.20;99.90
41928;DHT22;27616;51.420;6.788;2023-04-29T14:04:27;15.10;99.90
41928;DHT22;27616;51.420;6.788;2023-04-29T14:06:53;15.10;99.90
41928;DHT22;27616;51.420;6.788;2023-04-29T14:09:20;15.00;99.90
41928;DHT22;27616;51.420;6.788;2023-04-29T14:11:47;15.20;99.90
41928;DHT22;27616;51.420;6.788;2023-04-29T14:14:13;15.20;99.90
41928;DHT22;27616;51.420;6.788;2023-04-29T14:16:39;15.10;99.90
41928;DHT22;27616;51.420;6.788;2023-04-29T14:19:05;15.00;99.90
41928;DHT22;27616;51.420;6.788;2023-04-29T14:21:31;15.20;99.90
41928;DHT22;27616;51.420;6.788;2023-04-29T14:24:01;15.40;99.90
41928;DHT22;27616;51.420;6.788;2023-04-29T14:26:28;15.60;99.90
41928;DHT22;27616;51.420;6.788;2023-04-29T14:28:54;15.70;99.90
41928;DHT22;27616;51.420;6.788;2023-04-29T14:31:28;15.80;99.90
41928;DHT22;27616;51.420;6.788;2023-04-29T14:33:57;15.90;99.90
41928;DHT22;27616;51.420;6.788;2023-04-29T14:36:23;15.80;99.90
41928;DHT22;27616;51.420;6.788;2023-04-29T14:38:49;15.80;99.90
41928;DHT22;27616;51.420;6.788;2023-04-29T14:41:16;15.90;99.90
41928;DHT22;27616;51.420;6.788;2023-04-29T14:43:41;16.00;99.90
41928;DHT22;27616;51.420;6.788;2023-04-29T14:46:08;16.00;99.90
41928;DHT22;27616;51.420;6.788;2023-04-29T14:48:34;15.90;99.90
41928;DHT22;27616;51.420;6.788;2023-04-29T14:51:00;15.90;99.90
41928;DHT22;27616;51.420;6.788;2023-04-29T14:53:26;15.90;99.90
41928;DHT22;27616;51.420;6.788;2023-04-29T14:55:52;15.70;99.90
41928;DHT22;27616;51.420;6.788;2023-04-29T14:58:17;15.80;99.90
41928;DHT22;27616;51.420;6.788;2023-04-29T15:00:43;15.60;99.90
41928;DHT22;27616;51.420;6.788;2023-04-29T15:03:09;15.50;99.90
41928;DHT22;27616;51.420;6.788;2023-04-29T15:05:35;15.30;99.90
41928;DHT22;27616;51.420;6.788;2023-04-29T15:08:00;15.30;99.90
41928;DHT22;27616;51.420;6.788;2023-04-29T15:10:27;15.40;99.90
41928;DHT22;27616;51.420;6.788;2023-04-29T15:12:53;15.30;99.90
41928;DHT22;27616;51.420;6.788;2023-04-29T15:15:19;15.50;99.90
41928;DHT22;27616;51.420;6.788;2023-04-29T15:17:45;15.70;99.90
41928;DHT22;27616;51.420;6.788;2023-04-29T15:20:11;15.80;99.90
41928;DHT22;27616;51.420;6.788;2023-04-29T15:22:38;15.80;99.90
41928;DHT22;27616;51.420;6.788;2023-04-29T15:25:05;15.80;99.90
41928;DHT22;27616;51.420;6.788;2023-04-29T15:27:32;15.70;99.90
41928;DHT22;27616;51.420;6.788;2023-04-29T15:29:57;15.80;99.90
41928;DHT22;27616;51.420;6.788;2023-04-29T15:32:24;16.10;99.90
41928;DHT22;27616;51.420;6.788;2023-04-29T15:34:59;16.30;99.90
41928;DHT22;27616;51.420;6.788;2023-04-29T15:37:25;16.50;99.90
41928;DHT22;27616;51.420;6.788;2023-04-29T15:39:55;16.70;99.90
41928;DHT22;27616;51.420;6.788;2023-04-29T15:42:23;16.80;99.90
41928;DHT22;27616;51.420;6.788;2023-04-29T15:44:49;16.80;99.90
41928;DHT22;27616;51.420;6.788;2023-04-29T15:47:14;16.60;99.90
41928;DHT22;27616;51.420;6.788;2023-04-29T15:49:41;16.80;99.90
41928;DHT22;27616;51.420;6.788;2023-04-29T15:52:07;16.60;99.90
41928;DHT22;27616;51.420;6.788;2023-04-29T15:54:33;16.50;99.90
41928;DHT22;27616;51.420;6.788;2023-04-29T15:56:59;16.30;99.90
41928;DHT22;27616;51.420;6.788;2023-04-29T15:59:25;16.10;99.90
41928;DHT22;27616;51.420;6.788;2023-04-29T16:01:51;16.00;99.90
41928;DHT22;27616;51.420;6.788;2023-04-29T16:04:17;15.80;99.90